Time;durP1;ratioP1;P1;durP2;ratioP2;P2;SDS_P1;SDS_P2;PMS_P1;PMS_P2;Temp;Humidity;BMP_temperature;BMP_pressure;BME280_temperature;BME280_humidity;BME280_pressure;Samples;Min_cycle;Max_cycle;Signal;HPM_P1;HPM_P2
2022/04/16 00:01:53;;;;;;;;;;;20.70;43.60;;;;;;5075482;28;19908;-79
2022/04/16 00:04:19;;;;;;;;;;;20.70;43.70;;;;;;5057679;28;20330;-79
2022/04/16 00:06:44;;;;;;;;;;;20.70;43.70;;;;;;5075859;28;19912;-79
2022/04/16 00:09:10;;;;;;;;;;;20.70;43.70;;;;;;5075712;28;20011;-79
2022/04/16 00:11:37;;;;;;;;;;;20.70;43.70;;;;;;5057650;28;19914;-79
2022/04/16 00:14:03;;;;;;;;;;;20.70;43.80;;;;;;5075927;28;19908;-80
2022/04/16 00:16:29;;;;;;;;;;;20.70;43.80;;;;;;5076108;28;19912;-79
2022/04/16 00:18:57;;;;;;;;;;;20.60;43.80;;;;;;5075018;28;19915;-77
2022/04/16 00:21:23;;;;;;;;;;;20.70;44.10;;;;;;5075423;28;19999;-77
2022/04/16 00:23:49;;;;;;;;;;;20.70;44.20;;;;;;5075071;28;19975;-77
2022/04/16 00:26:15;;;;;;;;;;;20.70;44.20;;;;;;5075430;28;19917;-77
2022/04/16 00:28:40;;;;;;;;;;;20.70;44.30;;;;;;5075128;28;20253;-77
2022/04/16 00:31:06;;;;;;;;;;;20.80;44.50;;;;;;5075384;28;19916;-77
2022/04/16 00:33:33;;;;;;;;;;;20.70;44.50;;;;;;5074935;28;20356;-77
2022/04/16 00:36:00;;;;;;;;;;;20.70;44.60;;;;;;5056082;28;20318;-78
2022/04/16 00:38:25;;;;;;;;;;;20.70;44.70;;;;;;5073910;28;19908;-77
2022/04/16 00:40:52;;;;;;;;;;;20.70;44.80;;;;;;5074078;28;19912;-77
2022/04/16 00:43:20;;;;;;;;;;;20.70;45.00;;;;;;5073958;28;19905;-77
2022/04/16 00:45:47;;;;;;;;;;;20.70;45.00;;;;;;5055644;28;20299;-77
2022/04/16 00:48:12;;;;;;;;;;;20.70;45.00;;;;;;5073580;28;19981;-78
2022/04/16 00:50:38;;;;;;;;;;;20.70;45.20;;;;;;5073134;28;20371;-77
2022/04/16 00:53:04;;;;;;;;;;;20.70;45.20;;;;;;5072739;28;19916;-77
2022/04/16 00:55:30;;;;;;;;;;;20.70;45.20;;;;;;5073402;28;19912;-77
2022/04/16 00:57:55;;;;;;;;;;;20.80;45.30;;;;;;5073631;28;19958;-77
2022/04/16 01:00:21;;;;;;;;;;;20.70;45.10;;;;;;5073259;28;19916;-77
2022/04/16 01:02:47;;;;;;;;;;;20.70;45.00;;;;;;5055196;28;19916;-76
2022/04/16 01:05:12;;;;;;;;;;;20.70;45.00;;;;;;5055373;28;19904;-77
2022/04/16 01:07:53;;;;;;;;;;;20.70;45.00;;;;;;5055182;28;19918;-77
2022/04/16 01:10:19;;;;;;;;;;;20.70;45.10;;;;;;5073273;28;19944;-77
2022/04/16 01:12:45;;;;;;;;;;;20.70;45.10;;;;;;5073225;28;19909;-75
2022/04/16 01:15:13;;;;;;;;;;;20.70;45.00;;;;;;5073115;28;20325;-76
2022/04/16 01:17:38;;;;;;;;;;;20.70;45.20;;;;;;5073074;28;20261;-77
2022/04/16 01:20:04;;;;;;;;;;;20.70;45.20;;;;;;5072494;28;20011;-77
2022/04/16 01:22:30;;;;;;;;;;;20.70;45.30;;;;;;5054879;28;20352;-77
2022/04/16 01:24:55;;;;;;;;;;;20.70;45.10;;;;;;5054726;28;19948;-77
2022/04/16 01:27:21;;;;;;;;;;;20.60;45.00;;;;;;5054931;28;19950;-77
2022/04/16 01:29:48;;;;;;;;;;;20.70;45.00;;;;;;5054351;28;19913;-77
2022/04/16 01:32:13;;;;;;;;;;;20.70;45.10;;;;;;5054952;28;19933;-77
2022/04/16 01:34:40;;;;;;;;;;;20.50;44.90;;;;;;5072565;28;19913;-76
2022/04/16 01:37:05;;;;;;;;;;;20.60;45.00;;;;;;5073042;28;20353;-77
2022/04/16 01:39:31;;;;;;;;;;;20.70;45.10;;;;;;5072564;28;20031;-76
2022/04/16 01:41:57;;;;;;;;;;;20.70;45.00;;;;;;5072768;28;19916;-77
2022/04/16 01:44:23;;;;;;;;;;;20.70;45.10;;;;;;5072453;28;19908;-76
2022/04/16 01:46:48;;;;;;;;;;;20.70;45.30;;;;;;5054338;28;19912;-76
2022/04/16 01:49:14;;;;;;;;;;;20.60;45.10;;;;;;5054041;28;19913;-76
2022/04/16 01:51:39;;;;;;;;;;;20.60;45.00;;;;;;5052547;28;19912;-76
2022/04/16 01:54:05;;;;;;;;;;;20.70;44.90;;;;;;5071600;28;19927;-76
2022/04/16 01:56:30;;;;;;;;;;;20.60;44.70;;;;;;5071639;28;19913;-75
2022/04/16 01:58:56;;;;;;;;;;;20.70;44.80;;;;;;5070905;28;20003;-77
2022/04/16 02:01:22;;;;;;;;;;;20.60;44.90;;;;;;5072228;28;19948;-77
2022/04/16 02:03:47;;;;;;;;;;;20.70;44.90;;;;;;5071776;28;19948;-77
2022/04/16 02:06:13;;;;;;;;;;;20.60;44.70;;;;;;5071312;28;19951;-77
2022/04/16 02:08:39;;;;;;;;;;;20.60;44.80;;;;;;5072284;28;19920;-78
2022/04/16 02:11:04;;;;;;;;;;;20.60;44.70;;;;;;5055947;28;20003;-78
2022/04/16 02:13:30;;;;;;;;;;;20.70;44.70;;;;;;5056203;28;19935;-78
2022/04/16 02:15:56;;;;;;;;;;;20.60;44.70;;;;;;5074126;28;19908;-78
2022/04/16 02:18:23;;;;;;;;;;;20.60;44.70;;;;;;5056182;28;20425;-77
2022/04/16 02:20:49;;;;;;;;;;;20.60;44.70;;;;;;5074234;28;19999;-78
2022/04/16 02:23:15;;;;;;;;;;;20.60;44.70;;;;;;5074717;28;19943;-78
2022/04/16 02:25:41;;;;;;;;;;;20.60;44.60;;;;;;5074521;28;19920;-78
2022/04/16 02:28:07;;;;;;;;;;;20.60;44.70;;;;;;5075062;28;19923;-78
2022/04/16 02:30:32;;;;;;;;;;;20.60;44.60;;;;;;5056525;28;20145;-78
2022/04/16 02:32:58;;;;;;;;;;;20.60;44.60;;;;;;5056108;28;19908;-78
2022/04/16 02:35:24;;;;;;;;;;;20.60;44.50;;;;;;5075005;28;20667;-78
2022/04/16 02:37:49;;;;;;;;;;;20.60;44.50;;;;;;5074913;28;20011;-78
2022/04/16 02:40:15;;;;;;;;;;;20.50;44.50;;;;;;5074011;28;19908;-77
2022/04/16 02:42:42;;;;;;;;;;;20.50;44.50;;;;;;5054684;28;19927;-77
2022/04/16 02:47:53;;;;;;;;;;;20.50;44.70;;;;;;5074561;28;20283;-77
2022/04/16 02:50:19;;;;;;;;;;;20.60;44.70;;;;;;5077173;28;19913;-77
2022/04/16 02:52:46;;;;;;;;;;;20.50;44.60;;;;;;5094824;28;19892;-76
2022/04/16 02:55:15;;;;;;;;;;;20.50;44.70;;;;;;5096708;28;19908;-76
2022/04/16 02:57:42;;;;;;;;;;;20.60;44.80;;;;;;5080085;28;19900;-77
2022/04/16 03:00:09;;;;;;;;;;;20.50;44.70;;;;;;5084782;28;20352;-77
2022/04/16 03:02:35;;;;;;;;;;;20.50;44.50;;;;;;5053504;28;19913;-77
2022/04/16 03:05:03;;;;;;;;;;;20.50;44.50;;;;;;5071496;28;20412;-76
2022/04/16 03:07:29;;;;;;;;;;;20.50;44.80;;;;;;5071535;28;20031;-76
2022/04/16 03:09:54;;;;;;;;;;;20.50;44.80;;;;;;5071087;28;20003;-76
2022/04/16 03:12:19;;;;;;;;;;;20.50;44.60;;;;;;5071807;28;19955;-76
2022/04/16 03:17:32;;;;;;;;;;;20.50;44.50;;;;;;5074373;28;19915;-77
2022/04/16 03:19:58;;;;;;;;;;;20.50;44.40;;;;;;5057197;28;20376;-76
2022/04/16 03:22:23;;;;;;;;;;;20.50;44.60;;;;;;5075623;28;19953;-77
2022/04/16 03:24:49;;;;;;;;;;;20.50;44.50;;;;;;5075082;28;19908;-78
2022/04/16 03:27:16;;;;;;;;;;;20.50;44.60;;;;;;5057315;28;19948;-77
2022/04/16 03:29:41;;;;;;;;;;;20.50;44.40;;;;;;5075625;28;20006;-78
2022/04/16 03:32:07;;;;;;;;;;;20.50;44.50;;;;;;5075221;28;20461;-77
2022/04/16 03:34:32;;;;;;;;;;;20.50;44.50;;;;;;5075361;28;19908;-77
2022/04/16 03:36:58;;;;;;;;;;;20.50;44.60;;;;;;5075172;28;19999;-77
2022/04/16 03:39:23;;;;;;;;;;;20.50;44.40;;;;;;5074801;28;19919;-77
2022/04/16 03:41:49;;;;;;;;;;;20.50;44.50;;;;;;5075058;28;19948;-76
2022/04/16 03:44:14;;;;;;;;;;;20.40;45.00;;;;;;5074984;28;19908;-76
2022/04/16 03:46:40;;;;;;;;;;;20.40;44.40;;;;;;5075098;28;19952;-76
2022/04/16 03:49:05;;;;;;;;;;;20.40;44.40;;;;;;5074829;28;19913;-76
2022/04/16 03:51:31;;;;;;;;;;;20.40;44.30;;;;;;5057302;28;19912;-77
2022/04/16 03:59:59;;;;;;;;;;;20.40;44.30;;;;;;5074956;28;19925;-76
2022/04/16 04:02:11;;;;;;;;;;;20.40;44.60;;;;;;5074925;28;19963;-77
2022/04/16 04:04:36;;;;;;;;;;;20.40;44.40;;;;;;5057161;28;19912;-78
2022/04/16 04:07:02;;;;;;;;;;;20.40;44.70;;;;;;5056583;28;19965;-76
2022/04/16 04:09:27;;;;;;;;;;;20.40;44.40;;;;;;5055824;28;20015;-76
2022/04/16 04:11:53;;;;;;;;;;;20.40;43.80;;;;;;5056442;28;19951;-76
2022/04/16 04:14:18;;;;;;;;;;;20.40;43.90;;;;;;5074294;28;19912;-76
2022/04/16 04:16:44;;;;;;;;;;;20.30;44.00;;;;;;5074167;28;20007;-76
2022/04/16 04:19:09;;;;;;;;;;;20.30;43.90;;;;;;5073693;28;20285;-76
2022/04/16 04:21:35;;;;;;;;;;;20.30;44.00;;;;;;5074091;28;19919;-76
2022/04/16 04:24:00;;;;;;;;;;;20.40;44.10;;;;;;5073786;28;19909;-76
2022/04/16 04:26:26;;;;;;;;;;;20.40;43.90;;;;;;5056346;28;20365;-76
2022/04/16 04:28:51;;;;;;;;;;;20.40;43.80;;;;;;5072422;28;20015;-76
2022/04/16 04:31:17;;;;;;;;;;;20.30;44.30;;;;;;5056265;28;19908;-76
2022/04/16 04:33:42;;;;;;;;;;;20.30;44.30;;;;;;5074076;28;19908;-76
2022/04/16 04:36:08;;;;;;;;;;;20.30;44.50;;;;;;5073842;28;20364;-77
2022/04/16 04:38:33;;;;;;;;;;;20.30;44.70;;;;;;5055552;28;20029;-76
2022/04/16 04:41:00;;;;;;;;;;;20.40;44.80;;;;;;5073561;28;19908;-77
2022/04/16 04:43:26;;;;;;;;;;;20.30;44.80;;;;;;5056230;28;19961;-77
2022/04/16 04:45:51;;;;;;;;;;;20.30;44.80;;;;;;5074154;28;19913;-77
2022/04/16 04:48:17;;;;;;;;;;;20.30;45.00;;;;;;5056297;28;19967;-77
2022/04/16 04:50:42;;;;;;;;;;;20.30;45.20;;;;;;5055380;28;19955;-76
2022/04/16 04:53:08;;;;;;;;;;;20.30;45.10;;;;;;5055946;28;20007;-77
2022/04/16 04:55:33;;;;;;;;;;;20.30;45.00;;;;;;5055518;28;19909;-77
2022/04/16 04:57:58;;;;;;;;;;;20.40;45.00;;;;;;5056061;28;19963;-77
2022/04/16 05:00:24;;;;;;;;;;;20.40;45.10;;;;;;5055093;28;19913;-75
2022/04/16 05:02:49;;;;;;;;;;;20.30;45.00;;;;;;5073469;28;19909;-76
2022/04/16 05:05:15;;;;;;;;;;;20.40;45.10;;;;;;5073584;28;19959;-76
2022/04/16 05:07:42;;;;;;;;;;;20.40;44.80;;;;;;5055446;28;19918;-77
2022/04/16 05:10:08;;;;;;;;;;;20.40;45.00;;;;;;5073174;28;19950;-75
2022/04/16 05:12:33;;;;;;;;;;;20.40;44.80;;;;;;5073141;28;19916;-76
2022/04/16 05:14:59;;;;;;;;;;;20.50;44.80;;;;;;5073083;28;19909;-76
2022/04/16 05:17:25;;;;;;;;;;;20.40;44.80;;;;;;5073052;28;19914;-76
2022/04/16 05:19:50;;;;;;;;;;;20.40;44.70;;;;;;5054812;28;19919;-77
2022/04/16 05:22:16;;;;;;;;;;;20.30;44.70;;;;;;5072972;28;19998;-75
2022/04/16 05:24:41;;;;;;;;;;;20.50;44.90;;;;;;5073006;28;19908;-76
2022/04/16 05:27:09;;;;;;;;;;;20.40;44.80;;;;;;5054999;28;19959;-76
2022/04/16 05:29:48;;;;;;;;;;;20.40;44.70;;;;;;5072616;28;19913;-76
2022/04/16 05:32:16;;;;;;;;;;;20.40;44.70;;;;;;5072500;28;19908;-76
2022/04/16 05:34:41;;;;;;;;;;;20.40;44.70;;;;;;5054683;28;19927;-76
2022/04/16 05:37:07;;;;;;;;;;;20.40;44.60;;;;;;5072872;28;19909;-76
2022/04/16 05:39:32;;;;;;;;;;;20.30;44.50;;;;;;5072348;28;20364;-76
2022/04/16 05:41:58;;;;;;;;;;;20.40;44.70;;;;;;5072598;28;19909;-77
2022/04/16 05:44:23;;;;;;;;;;;20.40;44.80;;;;;;5072414;28;19908;-76
2022/04/16 05:46:49;;;;;;;;;;;20.40;44.60;;;;;;5072209;28;20003;-76
2022/04/16 05:49:14;;;;;;;;;;;20.40;44.50;;;;;;5071903;28;20275;-76
2022/04/16 05:51:39;;;;;;;;;;;20.40;44.20;;;;;;5072546;28;19913;-76
2022/04/16 05:54:05;;;;;;;;;;;20.40;44.60;;;;;;5072264;28;19932;-77
2022/04/16 05:56:31;;;;;;;;;;;20.40;44.80;;;;;;5072320;28;19913;-77
2022/04/16 05:58:58;;;;;;;;;;;20.40;44.30;;;;;;5071993;28;20432;-77
2022/04/16 06:01:24;;;;;;;;;;;20.40;44.60;;;;;;5073018;28;20395;-77
2022/04/16 06:03:50;;;;;;;;;;;20.40;44.50;;;;;;5054980;28;19909;-77
2022/04/16 06:06:15;;;;;;;;;;;20.40;44.40;;;;;;5073424;28;20440;-77
2022/04/16 06:08:40;;;;;;;;;;;20.40;44.50;;;;;;5054931;28;20333;-77
2022/04/16 06:11:06;;;;;;;;;;;20.50;44.60;;;;;;5054316;28;19919;-75
2022/04/16 06:13:31;;;;;;;;;;;20.40;44.40;;;;;;5072519;28;20003;-77
2022/04/16 06:15:57;;;;;;;;;;;20.50;44.60;;;;;;5072475;28;19908;-76
2022/04/16 06:18:23;;;;;;;;;;;20.50;44.80;;;;;;5072953;28;19912;-77
2022/04/16 06:20:48;;;;;;;;;;;20.50;44.90;;;;;;5071624;28;20370;-75
2022/04/16 06:23:14;;;;;;;;;;;20.50;45.00;;;;;;5071792;28;19965;-75
2022/04/16 06:25:39;;;;;;;;;;;20.50;44.90;;;;;;5071628;28;20287;-75
2022/04/16 06:28:05;;;;;;;;;;;20.40;44.80;;;;;;5071672;28;19920;-77
2022/04/16 06:30:30;;;;;;;;;;;20.50;45.00;;;;;;5072873;28;19913;-77
2022/04/16 06:32:56;;;;;;;;;;;20.50;45.20;;;;;;5073053;28;20062;-77
2022/04/16 06:35:22;;;;;;;;;;;20.50;44.80;;;;;;5073654;28;19909;-77
2022/04/16 06:37:47;;;;;;;;;;;20.50;45.10;;;;;;5052850;28;19909;-76
2022/04/16 06:40:13;;;;;;;;;;;20.50;44.10;;;;;;5051541;28;19909;-76
2022/04/16 06:42:40;;;;;;;;;;;20.50;44.10;;;;;;5052448;28;19909;-76
2022/04/16 06:45:06;;;;;;;;;;;20.50;43.60;;;;;;5052503;28;19919;-77
2022/04/16 06:47:32;;;;;;;;;;;20.50;43.90;;;;;;5052664;28;19916;-77
2022/04/16 06:49:57;;;;;;;;;;;20.50;43.90;;;;;;5052795;28;19913;-76
2022/04/16 06:52:23;;;;;;;;;;;20.50;43.80;;;;;;5052096;28;19956;-76
2022/04/16 06:54:49;;;;;;;;;;;20.50;43.80;;;;;;5033246;28;20362;-76
2022/04/16 06:57:14;;;;;;;;;;;20.50;43.60;;;;;;5051714;28;20369;-77
2022/04/16 06:59:40;;;;;;;;;;;20.50;43.60;;;;;;5052230;28;19909;-78
2022/04/16 07:02:07;;;;;;;;;;;20.50;43.40;;;;;;5054336;28;19994;-77
2022/04/16 07:04:32;;;;;;;;;;;20.50;43.40;;;;;;5048101;28;19913;-77
2022/04/16 07:06:58;;;;;;;;;;;20.40;43.50;;;;;;5051041;28;19936;-78
2022/04/16 07:09:24;;;;;;;;;;;20.50;43.70;;;;;;5050359;28;19913;-77
2022/04/16 07:11:50;;;;;;;;;;;20.60;43.40;;;;;;5050586;28;19919;-76
2022/04/16 07:14:16;;;;;;;;;;;20.60;43.00;;;;;;5049670;28;19991;-76
2022/04/16 07:16:42;;;;;;;;;;;20.60;43.30;;;;;;5032484;28;19912;-76
2022/04/16 07:19:08;;;;;;;;;;;20.60;43.30;;;;;;5051622;28;20288;-77
2022/04/16 07:21:34;;;;;;;;;;;20.60;42.90;;;;;;5033685;28;19909;-76
2022/04/16 07:24:00;;;;;;;;;;;20.60;42.50;;;;;;5050900;28;19912;-77
2022/04/16 07:26:25;;;;;;;;;;;20.60;42.70;;;;;;5034318;28;19975;-78
2022/04/16 07:28:51;;;;;;;;;;;20.60;42.50;;;;;;5052057;28;20012;-77
2022/04/16 07:31:16;;;;;;;;;;;20.50;42.50;;;;;;5053915;28;20015;-75
2022/04/16 07:33:42;;;;;;;;;;;20.60;43.00;;;;;;5053316;28;20422;-76
2022/04/16 07:36:07;;;;;;;;;;;20.60;43.00;;;;;;5051107;28;19915;-76
2022/04/16 07:38:32;;;;;;;;;;;20.60;42.70;;;;;;5050762;28;19970;-75
2022/04/16 07:40:58;;;;;;;;;;;20.60;43.00;;;;;;5050825;28;19909;-75
2022/04/16 07:43:23;;;;;;;;;;;20.60;43.00;;;;;;5057883;28;19916;-75
2022/04/16 07:45:49;;;;;;;;;;;20.60;42.80;;;;;;5066214;28;19969;-75
2022/04/16 07:48:14;;;;;;;;;;;20.60;42.70;;;;;;5064219;28;19967;-75
2022/04/16 07:50:40;;;;;;;;;;;20.60;42.60;;;;;;5041888;28;19952;-75
2022/04/16 07:53:06;;;;;;;;;;;20.60;42.50;;;;;;5032749;28;19917;-75
2022/04/16 07:55:32;;;;;;;;;;;20.70;42.00;;;;;;5032797;28;19956;-76
2022/04/16 07:57:58;;;;;;;;;;;20.70;42.00;;;;;;5050857;28;19955;-75
2022/04/16 08:00:24;;;;;;;;;;;20.70;41.70;;;;;;5050494;28;19909;-76
2022/04/16 08:02:49;;;;;;;;;;;20.70;42.10;;;;;;5050457;28;19908;-75
2022/04/16 08:05:15;;;;;;;;;;;20.70;41.60;;;;;;5054366;28;20253;-76
2022/04/16 08:07:40;;;;;;;;;;;20.70;41.80;;;;;;5054331;28;20391;-75
2022/04/16 08:10:06;;;;;;;;;;;20.70;42.10;;;;;;5053911;28;20003;-75
2022/04/16 08:12:31;;;;;;;;;;;20.80;41.90;;;;;;5054310;28;20265;-75
2022/04/16 08:14:57;;;;;;;;;;;20.80;41.90;;;;;;5054051;28;20325;-76
2022/04/16 08:17:22;;;;;;;;;;;20.80;41.70;;;;;;5037516;28;19916;-76
2022/04/16 08:19:48;;;;;;;;;;;20.90;41.80;;;;;;5054810;28;19909;-76
2022/04/16 08:22:18;;;;;;;;;;;20.80;42.00;;;;;;5055272;28;20280;-76
2022/04/16 08:27:34;;;;;;;;;;;20.80;41.80;;;;;;5054827;28;19970;-76
2022/04/16 08:30:00;;;;;;;;;;;20.80;42.10;;;;;;5054624;28;19909;-76
2022/04/16 08:32:25;;;;;;;;;;;20.80;42.00;;;;;;5053855;28;20372;-76
2022/04/16 08:34:51;;;;;;;;;;;20.80;41.30;;;;;;5053907;28;20034;-76
2022/04/16 08:37:16;;;;;;;;;;;20.80;41.60;;;;;;5055127;28;19909;-75
2022/04/16 08:39:42;;;;;;;;;;;20.70;42.20;;;;;;5053748;28;19916;-76
2022/04/16 08:42:07;;;;;;;;;;;20.80;42.50;;;;;;5034725;28;19955;-76
2022/04/16 08:44:33;;;;;;;;;;;20.80;42.40;;;;;;5053343;28;19908;-75
2022/04/16 08:46:59;;;;;;;;;;;20.80;42.30;;;;;;5053703;28;19999;-74
2022/04/16 08:49:25;;;;;;;;;;;20.90;42.50;;;;;;5035305;28;20365;-74
2022/04/16 08:51:50;;;;;;;;;;;20.90;42.40;;;;;;5053349;28;19912;-74
2022/04/16 08:54:16;;;;;;;;;;;20.90;42.30;;;;;;5035226;28;19921;-74
2022/04/16 08:56:41;;;;;;;;;;;20.90;42.30;;;;;;5053277;28;19909;-74
2022/04/16 08:59:07;;;;;;;;;;;20.90;42.40;;;;;;5053092;28;20012;-74
2022/04/16 09:01:34;;;;;;;;;;;20.80;42.20;;;;;;5053207;28;19919;-74
2022/04/16 09:03:59;;;;;;;;;;;20.90;42.40;;;;;;5053092;28;19916;-74
2022/04/16 09:06:25;;;;;;;;;;;20.90;42.10;;;;;;5053419;28;20285;-74
2022/04/16 09:08:51;;;;;;;;;;;20.90;42.10;;;;;;5052594;28;19920;-74
2022/04/16 09:11:20;;;;;;;;;;;20.90;42.20;;;;;;5053199;28;19909;-74
2022/04/16 09:13:46;;;;;;;;;;;20.90;42.70;;;;;;5052454;28;19913;-74
2022/04/16 09:16:12;;;;;;;;;;;20.90;41.90;;;;;;5053051;28;19916;-74
2022/04/16 09:18:51;;;;;;;;;;;20.90;41.70;;;;;;5052591;28;20417;-74
2022/04/16 09:21:17;;;;;;;;;;;20.90;41.60;;;;;;5053087;28;19908;-74
2022/04/16 09:23:44;;;;;;;;;;;20.90;41.90;;;;;;5052671;28;19909;-75
2022/04/16 09:26:10;;;;;;;;;;;20.90;41.60;;;;;;5052894;28;19913;-77
2022/04/16 09:28:42;;;;;;;;;;;20.90;41.60;;;;;;5034869;28;20292;-77
2022/04/16 09:31:07;;;;;;;;;;;20.90;41.40;;;;;;5034711;28;20002;-74
2022/04/16 09:33:37;;;;;;;;;;;21.00;41.50;;;;;;5052561;28;19959;-74
2022/04/16 09:36:02;;;;;;;;;;;21.10;41.20;;;;;;5052720;28;20419;-75
2022/04/16 09:38:34;;;;;;;;;;;21.10;40.90;;;;;;5052461;28;20270;-75
2022/04/16 09:41:03;;;;;;;;;;;21.20;41.30;;;;;;5052671;28;20467;-76
2022/04/16 09:43:35;;;;;;;;;;;21.20;41.50;;;;;;5052553;28;19916;-75
2022/04/16 09:46:11;;;;;;;;;;;21.20;41.70;;;;;;5052400;28;20721;-75
2022/04/16 09:48:37;;;;;;;;;;;21.20;41.70;;;;;;5052045;28;19916;-76
2022/04/16 09:51:04;;;;;;;;;;;21.20;41.50;;;;;;5052863;28;19916;-76
2022/04/16 09:53:30;;;;;;;;;;;21.20;41.30;;;;;;5052377;28;19924;-75
2022/04/16 09:55:57;;;;;;;;;;;21.20;41.70;;;;;;5053091;28;19920;-75
2022/04/16 09:58:25;;;;;;;;;;;21.20;41.30;;;;;;5052302;28;19908;-76
2022/04/16 10:00:51;;;;;;;;;;;21.20;41.70;;;;;;5052378;28;20450;-76
2022/04/16 10:03:17;;;;;;;;;;;21.20;42.00;;;;;;5052389;28;19999;-78
2022/04/16 10:05:43;;;;;;;;;;;21.10;42.00;;;;;;5034348;28;20364;-79
2022/04/16 10:08:09;;;;;;;;;;;21.10;41.30;;;;;;5051957;28;20295;-78
2022/04/16 10:10:41;;;;;;;;;;;21.10;41.30;;;;;;5051821;28;19908;-77
2022/04/16 10:13:09;;;;;;;;;;;21.10;41.70;;;;;;5053692;28;20333;-76
2022/04/16 10:15:40;;;;;;;;;;;21.10;41.30;;;;;;5053073;28;19909;-76
2022/04/16 10:18:05;;;;;;;;;;;21.10;41.30;;;;;;5054711;28;20372;-76
2022/04/16 10:20:31;;;;;;;;;;;21.10;41.50;;;;;;5053625;28;19917;-78
2022/04/16 10:23:05;;;;;;;;;;;21.10;41.40;;;;;;5054938;28;19920;-75
2022/04/16 10:25:34;;;;;;;;;;;21.10;41.60;;;;;;5052160;28;19913;-76
2022/04/16 10:28:02;;;;;;;;;;;21.10;41.60;;;;;;5052773;28;19913;-75
2022/04/16 10:30:35;;;;;;;;;;;21.10;41.70;;;;;;5033562;28;19976;-75
2022/04/16 10:33:03;;;;;;;;;;;21.10;42.00;;;;;;5051662;28;19913;-75
2022/04/16 10:35:29;;;;;;;;;;;21.10;41.70;;;;;;5051864;28;19948;-77
2022/04/16 10:37:54;;;;;;;;;;;21.10;42.40;;;;;;5052785;28;19913;-74
2022/04/16 10:40:21;;;;;;;;;;;21.20;42.40;;;;;;5051788;28;20573;-75
2022/04/16 10:42:48;;;;;;;;;;;21.10;42.50;;;;;;5051430;28;19916;-75
2022/04/16 10:45:13;;;;;;;;;;;21.20;42.80;;;;;;5051697;28;19955;-74
2022/04/16 10:47:41;;;;;;;;;;;21.10;42.80;;;;;;5033638;28;19913;-74
2022/04/16 10:50:13;;;;;;;;;;;21.10;41.90;;;;;;5051237;28;19913;-74
2022/04/16 10:52:38;;;;;;;;;;;21.10;41.80;;;;;;5033541;28;19910;-74
2022/04/16 10:55:05;;;;;;;;;;;21.20;41.80;;;;;;5051591;28;20368;-75
2022/04/16 10:57:30;;;;;;;;;;;21.10;41.60;;;;;;5051537;28;19920;-75
2022/04/16 10:59:59;;;;;;;;;;;21.10;41.70;;;;;;5050960;28;19912;-75
2022/04/16 11:02:26;;;;;;;;;;;21.10;41.70;;;;;;5051584;28;19909;-75
2022/04/16 11:04:56;;;;;;;;;;;21.10;41.80;;;;;;5033247;28;20387;-75
2022/04/16 11:07:22;;;;;;;;;;;21.00;41.60;;;;;;5051417;28;20006;-75
2022/04/16 11:09:50;;;;;;;;;;;21.00;41.90;;;;;;5050843;28;19913;-76
2022/04/16 11:12:15;;;;;;;;;;;21.00;41.50;;;;;;5051391;28;19952;-75
2022/04/16 11:14:41;;;;;;;;;;;21.00;41.50;;;;;;5050986;28;20009;-76
2022/04/16 11:17:07;;;;;;;;;;;21.00;41.30;;;;;;5051276;28;19913;-76
2022/04/16 11:19:32;;;;;;;;;;;21.00;41.50;;;;;;5050768;28;20346;-76
2022/04/16 11:21:58;;;;;;;;;;;21.10;41.30;;;;;;5051215;28;19909;-76
2022/04/16 11:24:25;;;;;;;;;;;21.00;41.30;;;;;;5033154;28;19915;-76
2022/04/16 11:35:12;;;;;;;;;;;21.20;41.50;;;;;;5051260;28;19916;-76
2022/04/16 11:37:38;;;;;;;;;;;21.20;40.90;;;;;;5052413;28;20191;-76
2022/04/16 11:40:08;;;;;;;;;;;21.10;40.80;;;;;;5054614;28;19913;-76
2022/04/16 11:42:34;;;;;;;;;;;21.10;41.20;;;;;;5054853;28;19931;-76
2022/04/16 11:44:59;;;;;;;;;;;21.10;40.60;;;;;;5054881;28;19909;-76
2022/04/16 11:47:29;;;;;;;;;;;21.10;40.70;;;;;;5055166;28;20291;-76
2022/04/16 11:49:55;;;;;;;;;;;21.10;40.60;;;;;;5054387;28;19950;-76
2022/04/16 11:52:25;;;;;;;;;;;21.10;40.60;;;;;;5055002;28;19913;-76
2022/04/16 11:55:06;;;;;;;;;;;21.10;40.60;;;;;;5054804;28;19921;-76
2022/04/16 11:57:32;;;;;;;;;;;21.10;40.80;;;;;;5054789;28;19917;-76
2022/04/16 12:00:03;;;;;;;;;;;21.10;41.40;;;;;;5054344;28;19909;-76
2022/04/16 12:02:29;;;;;;;;;;;21.10;41.10;;;;;;5054758;28;19962;-76
2022/04/16 12:05:05;;;;;;;;;;;21.10;41.10;;;;;;5037100;28;19909;-76
2022/04/16 12:07:31;;;;;;;;;;;21.10;41.00;;;;;;5055777;28;19913;-76
2022/04/16 12:10:00;;;;;;;;;;;21.20;41.20;;;;;;5036776;28;20304;-76
2022/04/16 12:12:25;;;;;;;;;;;21.10;40.90;;;;;;5055625;28;20003;-76
2022/04/16 12:14:51;;;;;;;;;;;21.10;40.80;;;;;;5055677;28;19944;-76
2022/04/16 12:17:24;;;;;;;;;;;21.10;40.80;;;;;;5058532;28;19909;-76
2022/04/16 12:20:05;;;;;;;;;;;21.10;40.60;;;;;;5039768;28;19908;-76
2022/04/16 12:22:32;;;;;;;;;;;21.10;41.20;;;;;;5062557;28;19956;-79
2022/04/16 12:25:07;;;;;;;;;;;21.10;41.00;;;;;;5065886;28;19963;-80
2022/04/16 12:27:32;;;;;;;;;;;21.10;40.60;;;;;;5072603;28;20007;-78
2022/04/16 12:29:59;;;;;;;;;;;21.10;40.80;;;;;;5072364;28;20007;-78
2022/04/16 12:32:27;;;;;;;;;;;21.10;40.90;;;;;;5072896;28;19948;-77
2022/04/16 12:34:53;;;;;;;;;;;21.10;40.60;;;;;;5052202;28;19977;-77
2022/04/16 12:37:22;;;;;;;;;;;21.10;40.70;;;;;;5074837;28;19909;-78
2022/04/16 12:39:48;;;;;;;;;;;21.10;41.10;;;;;;5056291;28;19996;-77
2022/04/16 12:42:14;;;;;;;;;;;21.20;40.60;;;;;;5074749;28;19909;-79
2022/04/16 12:44:39;;;;;;;;;;;21.20;40.40;;;;;;5073561;28;19954;-76
2022/04/16 12:47:05;;;;;;;;;;;21.20;40.80;;;;;;5073705;28;19908;-77
2022/04/16 12:49:30;;;;;;;;;;;21.20;40.50;;;;;;5072487;28;20392;-77
2022/04/16 12:51:56;;;;;;;;;;;21.20;40.60;;;;;;5047688;28;20356;-77
2022/04/16 12:54:22;;;;;;;;;;;21.20;40.90;;;;;;5038343;28;20332;-76
2022/04/16 12:56:47;;;;;;;;;;;21.20;41.10;;;;;;5084855;28;20386;-77
2022/04/16 12:59:13;;;;;;;;;;;21.20;41.10;;;;;;5073239;28;19915;-77
2022/04/16 13:01:38;;;;;;;;;;;21.20;41.20;;;;;;5084974;28;19908;-74
2022/04/16 13:04:04;;;;;;;;;;;21.20;41.30;;;;;;5075171;28;19908;-74
2022/04/16 13:06:30;;;;;;;;;;;21.20;41.40;;;;;;5093470;28;19908;-75
2022/04/16 13:08:56;;;;;;;;;;;21.10;41.30;;;;;;5074941;28;19917;-74
2022/04/16 13:11:22;;;;;;;;;;;21.20;41.40;;;;;;5073228;28;19917;-74
2022/04/16 13:13:47;;;;;;;;;;;21.20;41.70;;;;;;5072837;28;20288;-75
2022/04/16 13:16:13;;;;;;;;;;;21.20;41.30;;;;;;5074812;28;19999;-74
2022/04/16 13:18:40;;;;;;;;;;;21.20;41.20;;;;;;5092775;28;19916;-75
2022/04/16 13:21:06;;;;;;;;;;;21.20;42.60;;;;;;5076376;28;19954;-75
2022/04/16 13:23:32;;;;;;;;;;;21.20;42.10;;;;;;5072491;28;19916;-75
2022/04/16 13:25:57;;;;;;;;;;;21.20;42.30;;;;;;5072315;28;19916;-75
2022/04/16 13:28:23;;;;;;;;;;;21.20;41.70;;;;;;5065134;28;19916;-75
2022/04/16 13:30:48;;;;;;;;;;;21.20;42.20;;;;;;5084052;28;19908;-74
2022/04/16 13:33:15;;;;;;;;;;;21.20;42.00;;;;;;5090529;28;19930;-75
2022/04/16 13:35:41;;;;;;;;;;;21.20;42.40;;;;;;5062791;28;20299;-75
2022/04/16 13:38:07;;;;;;;;;;;21.10;42.20;;;;;;5068259;28;20147;-75
2022/04/16 13:43:16;;;;;;;;;;;21.20;41.10;;;;;;5068475;28;19924;-74
2022/04/16 13:45:42;;;;;;;;;;;21.20;40.90;;;;;;5050988;28;19908;-75
2022/04/16 13:48:07;;;;;;;;;;;21.20;40.60;;;;;;5069654;28;19927;-75
2022/04/16 13:50:33;;;;;;;;;;;21.30;40.70;;;;;;5071095;28;19912;-75
2022/04/16 13:52:58;;;;;;;;;;;21.20;40.50;;;;;;5071839;28;19913;-75
2022/04/16 13:55:24;;;;;;;;;;;21.20;40.40;;;;;;5072318;28;19916;-76
2022/04/16 13:57:49;;;;;;;;;;;21.20;40.40;;;;;;5072115;28;20398;-75
2022/04/16 14:00:15;;;;;;;;;;;21.20;40.40;;;;;;5071864;28;19908;-75
2022/04/16 14:02:44;;;;;;;;;;;21.20;40.40;;;;;;5053962;28;20003;-75
2022/04/16 14:07:54;;;;;;;;;;;21.20;40.20;;;;;;5072235;28;19915;-75
2022/04/16 14:10:19;;;;;;;;;;;21.30;40.40;;;;;;5053648;28;19909;-75
2022/04/16 14:12:45;;;;;;;;;;;21.20;40.10;;;;;;5053918;28;19962;-74
2022/04/16 14:15:11;;;;;;;;;;;21.20;40.20;;;;;;5071799;28;19916;-74
2022/04/16 14:17:37;;;;;;;;;;;21.10;40.00;;;;;;5071753;28;19913;-75
2022/04/16 14:20:03;;;;;;;;;;;21.20;40.20;;;;;;5071491;28;19922;-75
2022/04/16 14:22:29;;;;;;;;;;;21.20;40.10;;;;;;5071840;28;19962;-74
2022/04/16 14:24:55;;;;;;;;;;;21.10;40.00;;;;;;5071514;28;19912;-74
2022/04/16 14:27:20;;;;;;;;;;;21.20;40.00;;;;;;5071804;28;19915;-75
2022/04/16 14:29:49;;;;;;;;;;;21.20;40.00;;;;;;5070415;28;20375;-75
2022/04/16 14:32:15;;;;;;;;;;;21.10;39.80;;;;;;5053990;28;19999;-74
2022/04/16 14:34:40;;;;;;;;;;;21.20;40.30;;;;;;5033071;28;20016;-75
2022/04/16 14:37:06;;;;;;;;;;;21.20;40.30;;;;;;5032816;28;19920;-75
2022/04/16 14:39:32;;;;;;;;;;;21.20;40.70;;;;;;5050301;28;19910;-75